createdAt,value
2023-02-14T00:00:55.631Z,103109.56
2023-02-14T00:03:21.337Z,103109.34
2023-02-14T00:05:47.000Z,103104.88
2023-02-14T00:08:12.654Z,103120.38
2023-02-14T00:10:38.375Z,103119.75
2023-02-14T00:13:04.212Z,103114.25
2023-02-14T00:15:29.858Z,103107.88
2023-02-14T00:17:58.658Z,103102.38
2023-02-14T00:20:25.624Z,103104.06
2023-02-14T00:22:51.772Z,103103.22
2023-02-14T00:25:17.618Z,103101.28
2023-02-14T00:27:43.357Z,103105.13
2023-02-14T00:30:10.672Z,103109.81
2023-02-14T00:32:38.730Z,103105.97
2023-02-14T00:35:05.524Z,103104.28
2023-02-14T00:37:31.648Z,103097.69
2023-02-14T00:39:57.287Z,103097.69
2023-02-14T00:42:22.927Z,103096.63
2023-02-14T00:44:48.564Z,103091.34
2023-02-14T00:47:14.284Z,103101.53
2023-02-14T00:49:39.941Z,103097.94
2023-02-14T00:52:05.639Z,103098.75
2023-02-14T00:54:31.355Z,103101.53
2023-02-14T00:56:56.991Z,103100.69
2023-02-14T00:59:22.741Z,103102.56
2023-02-14T01:01:48.461Z,103097.69
2023-02-14T01:04:14.116Z,103098.75
2023-02-14T01:06:39.770Z,103103.44
2023-02-14T01:09:05.455Z,103097.06
2023-02-14T01:11:31.098Z,103098.75
2023-02-14T01:13:57.321Z,103099.59
2023-02-14T01:16:25.026Z,103104.28
2023-02-14T01:18:50.856Z,103098.97
2023-02-14T01:21:22.684Z,103099.81
2023-02-14T01:23:50.056Z,103091.78
2023-02-14T01:26:16.442Z,103097.06
2023-02-14T01:28:42.370Z,103093.44
2023-02-14T01:31:10.689Z,103095.16
2023-02-14T01:33:37.099Z,103093.44
2023-02-14T01:36:03.064Z,103095.38
2023-02-14T01:38:28.912Z,103095.38
2023-02-14T01:40:54.620Z,103089.84
2023-02-14T01:43:20.254Z,103086.25
2023-02-14T01:45:45.963Z,103087.09
2023-02-14T01:48:11.848Z,103087.94
2023-02-14T01:50:40.704Z,103089.84
2023-02-14T01:53:11.623Z,103084.34
2023-02-14T01:55:41.888Z,103087.09
2023-02-14T01:58:10.968Z,103070.53
2023-02-14T02:00:58.186Z,103075.22
2023-02-14T02:03:32.176Z,103075.22
2023-02-14T02:06:06.306Z,103075.22
2023-02-14T02:08:35.276Z,103069.69
2023-02-14T02:11:01.247Z,103069.69
2023-02-14T02:13:27.104Z,103064.19
2023-02-14T02:19:10.345Z,103062.50
2023-02-14T02:22:09.542Z,103056.97
2023-02-14T02:25:03.870Z,103063.34
2023-02-14T02:27:58.252Z,103058.91
2023-02-14T02:33:39.233Z,103068.41
2023-02-14T02:39:23.886Z,103059.72
2023-02-14T02:42:20.782Z,103055.06
2023-02-14T02:45:19.465Z,103060.56
2023-02-14T02:48:08.697Z,103049.53
2023-02-14T02:51:01.312Z,103055.91
2023-02-14T02:53:40.632Z,103053.38
2023-02-14T02:56:33.689Z,103052.53
2023-02-14T02:59:05.764Z,103047.84
2023-02-14T03:01:35.384Z,103044.25
2023-02-14T03:04:24.400Z,103044.25
2023-02-14T03:06:50.876Z,103047.84
2023-02-14T03:14:49.641Z,103048.91
2023-02-14T03:17:24.705Z,103049.97
2023-02-14T03:20:14.977Z,103057.19
2023-02-14T03:23:03.533Z,103048.06
2023-02-14T03:25:42.902Z,103053.59
2023-02-14T03:28:31.890Z,103059.09
2023-02-14T03:31:06.722Z,103058.25
2023-02-14T03:33:38.394Z,103058.06
2023-02-14T03:36:26.367Z,103054.41
2023-02-14T03:39:13.401Z,103061.00
2023-02-14T03:41:45.745Z,103062.94
2023-02-14T03:44:12.382Z,103059.09
2023-02-14T03:46:43.980Z,103055.50
2023-02-14T03:49:12.667Z,103051.91
2023-02-14T03:51:38.690Z,103062.69
2023-02-14T03:54:06.999Z,103054.41
2023-02-14T03:56:39.284Z,103059.94
2023-02-14T03:59:09.465Z,103061.84
2023-02-14T04:01:38.218Z,103058.25
2023-02-14T04:04:05.013Z,103052.75
2023-02-14T04:06:30.662Z,103049.13
2023-02-14T04:08:56.294Z,103053.81
2023-02-14T04:11:24.074Z,103051.06
2023-02-14T04:13:50.186Z,103053.81
2023-02-14T04:16:15.843Z,103057.41
2023-02-14T04:19:01.425Z,103055.50
2023-02-14T04:21:27.101Z,103052.13
2023-02-14T04:23:52.737Z,103054.66
2023-02-14T04:26:18.386Z,103051.06
2023-02-14T04:28:44.109Z,103048.28
2023-02-14T04:31:10.688Z,103047.47
2023-02-14T04:33:36.777Z,103048.28
2023-02-14T04:36:02.509Z,103045.53
2023-02-14T04:38:28.163Z,103050.22
2023-02-14T04:40:53.847Z,103047.47
2023-02-14T04:43:19.498Z,103035.59
2023-02-14T04:45:46.062Z,103030.28
2023-02-14T04:48:11.724Z,103029.44
2023-02-14T04:50:37.360Z,103035.59
2023-02-14T04:53:03.031Z,103026.47
2023-02-14T04:55:28.689Z,103018.19
2023-02-14T04:57:54.348Z,103020.94
2023-02-14T05:00:20.231Z,103015.44
2023-02-14T05:02:45.905Z,103019.22
2023-02-14T05:05:11.552Z,103020.09
2023-02-14T05:07:37.221Z,103016.47
2023-02-14T05:10:04.860Z,103018.19
2023-02-14T05:12:30.493Z,103015.44
2023-02-14T05:14:56.794Z,103013.72
2023-02-14T05:17:22.800Z,103016.25
2023-02-14T05:19:48.467Z,103011.81
2023-02-14T05:22:14.179Z,103012.66
2023-02-14T05:24:39.821Z,102999.06
2023-02-14T05:27:06.692Z,103008.19
2023-02-14T05:29:32.354Z,102999.06
2023-02-14T05:31:58.040Z,102994.41
2023-02-14T05:34:23.880Z,102998.03
2023-02-14T05:36:49.512Z,103005.44
2023-02-14T05:39:15.169Z,103001.84
2023-02-14T05:41:40.955Z,103010.13
2023-02-14T05:44:06.612Z,103005.44
2023-02-14T05:46:32.245Z,103002.69
2023-02-14T05:48:58.241Z,103001.63
2023-02-14T05:51:23.898Z,102994.63
2023-02-14T05:53:49.539Z,102997.16
2023-02-14T05:56:15.446Z,103000.78
2023-02-14T05:58:41.082Z,102996.31
2023-02-14T06:01:06.734Z,102995.47
2023-02-14T06:03:32.376Z,103009.06
2023-02-14T06:05:58.018Z,103007.34
2023-02-14T06:08:23.654Z,103010.13
2023-02-14T06:10:49.343Z,103001.84
2023-02-14T06:13:15.117Z,102996.31
2023-02-14T06:15:40.760Z,103008.19
2023-02-14T06:18:06.445Z,103000.16
2023-02-14T06:20:32.101Z,103006.50
2023-02-14T06:22:57.783Z,103008.44
2023-02-14T06:25:24.589Z,103016.47
2023-02-14T06:27:50.877Z,103011.19
2023-02-14T06:30:17.490Z,103012.88
2023-02-14T06:32:43.304Z,103013.94
2023-02-14T06:35:09.294Z,103017.53
2023-02-14T06:37:34.962Z,103029.66
2023-02-14T06:40:01.085Z,103024.16
2023-02-14T06:42:26.731Z,103034.34
2023-02-14T06:44:52.391Z,103032.41
2023-02-14T06:47:18.044Z,103031.34
2023-02-14T06:49:43.701Z,103037.94
2023-02-14T06:52:09.445Z,103033.44
2023-02-14T06:54:35.111Z,103040.88
2023-02-14T06:57:00.755Z,103030.38
2023-02-14T06:59:26.534Z,103027.22
2023-02-14T07:01:52.804Z,103035.97
2023-02-14T07:04:18.494Z,103028.97
2023-02-14T07:06:45.317Z,103030.91
2023-02-14T07:09:11.230Z,103030.06
2023-02-14T07:11:36.872Z,103034.75
2023-02-14T07:14:02.553Z,103027.31
2023-02-14T07:16:28.301Z,103028.16
2023-02-14T07:18:53.940Z,103026.22
2023-02-14T07:21:19.634Z,103036.19
2023-02-14T07:23:46.941Z,103027.91
2023-02-14T07:26:17.168Z,103027.91
2023-02-14T07:28:45.233Z,103031.50
2023-02-14T07:31:11.460Z,103037.88
2023-02-14T07:33:37.653Z,103029.59
2023-02-14T07:36:04.857Z,103026.00
2023-02-14T07:38:30.523Z,103023.22
2023-02-14T07:40:56.179Z,103024.94
2023-02-14T07:43:21.810Z,103024.94
2023-02-14T07:45:48.020Z,103031.31
2023-02-14T07:48:13.656Z,103031.31
2023-02-14T07:50:39.302Z,103031.31
2023-02-14T07:53:04.948Z,103033.81
2023-02-14T07:55:30.634Z,103027.47
2023-02-14T07:57:56.284Z,103034.66
2023-02-14T08:00:22.169Z,103031.06
2023-02-14T08:02:48.600Z,103034.66
2023-02-14T08:05:14.765Z,103037.44
2023-02-14T08:07:41.260Z,103035.50
2023-02-14T08:10:07.083Z,103026.38
2023-02-14T08:12:52.629Z,103028.44
2023-02-14T08:15:38.185Z,103024.44
2023-02-14T08:18:03.825Z,103034.00
2023-02-14T08:20:29.471Z,103026.50
2023-02-14T08:22:55.399Z,103023.50
2023-02-14T08:25:21.068Z,103023.50
2023-02-14T08:27:46.718Z,103029.44
2023-02-14T08:30:12.808Z,103032.63
2023-02-14T08:32:38.617Z,103038.00
2023-02-14T08:35:04.583Z,103038.81
2023-02-14T08:37:30.229Z,103037.16
2023-02-14T08:39:55.909Z,103040.75
2023-02-14T08:42:21.562Z,103034.38
2023-02-14T08:44:47.202Z,103041.59
2023-02-14T08:47:12.860Z,103040.75
2023-02-14T08:49:38.706Z,103040.75
2023-02-14T08:52:04.481Z,103035.19
2023-02-14T08:54:30.150Z,103044.31
2023-02-14T08:56:56.117Z,103047.88
2023-02-14T08:59:21.842Z,103049.09
2023-02-14T09:01:47.503Z,103040.91
2023-02-14T09:04:13.320Z,103043.03
2023-02-14T09:06:39.223Z,103043.22
2023-02-14T09:09:05.903Z,103037.94
2023-02-14T09:11:32.083Z,103040.69
2023-02-14T09:13:57.757Z,103028.81
2023-02-14T09:16:24.374Z,103035.19
2023-02-14T09:18:51.866Z,103027.75
2023-02-14T09:21:23.390Z,103023.06
2023-02-14T09:23:49.189Z,103020.31
2023-02-14T09:26:16.102Z,103015.38
2023-02-14T09:28:41.842Z,103014.53
2023-02-14T09:31:09.851Z,103012.00
2023-02-14T09:33:35.706Z,103004.78
2023-02-14T09:36:21.371Z,103014.13
2023-02-14T09:38:47.046Z,103017.13
2023-02-14T09:41:33.093Z,103001.63
2023-02-14T09:44:10.273Z,103005.25
2023-02-14T09:46:42.352Z,102997.81
2023-02-14T09:49:13.737Z,102995.88
2023-02-14T09:51:44.376Z,103001.41
2023-02-14T09:54:12.957Z,103001.41
2023-02-14T09:57:02.272Z,103003.94
2023-02-14T09:59:37.003Z,102999.13
2023-02-14T10:02:21.900Z,102999.81
2023-02-14T10:05:02.190Z,103004.94
2023-02-14T10:07:37.201Z,102993.53
2023-02-14T10:10:15.678Z,102991.59
2023-02-14T10:12:46.930Z,102999.03
2023-02-14T10:15:20.490Z,102996.28
2023-02-14T10:17:51.889Z,102997.13
2023-02-14T10:20:38.601Z,102988.84
2023-02-14T10:23:37.648Z,102991.59
2023-02-14T10:26:06.788Z,102986.09
2023-02-14T10:28:35.064Z,102986.94
2023-02-14T10:31:31.797Z,102995.31
2023-02-14T10:34:14.406Z,102982.19
2023-02-14T10:40:17.683Z,102983.47
2023-02-14T10:43:23.168Z,102979.88
2023-02-14T10:45:58.762Z,102976.88
2023-02-14T10:48:51.310Z,102972.44
2023-02-14T10:51:31.231Z,102965.84
2023-02-14T10:54:16.028Z,102968.75
2023-02-14T10:56:46.423Z,102966.22
2023-02-14T10:59:32.096Z,102962.88
2023-02-14T11:01:58.607Z,102965.63
2023-02-14T11:04:24.671Z,102947.34
2023-02-14T11:06:50.961Z,102943.75
2023-02-14T11:09:17.155Z,102943.75
2023-02-14T11:11:46.212Z,102945.66
2023-02-14T11:14:27.365Z,102948.19
2023-02-14T11:16:53.912Z,102944.59
2023-02-14T11:19:30.049Z,102943.75
2023-02-14T11:21:57.594Z,102939.06
2023-02-14T11:24:27.476Z,102942.66
2023-02-14T11:26:56.009Z,102938.03
2023-02-14T11:29:41.468Z,102938.03
2023-02-14T11:32:09.941Z,102936.31
2023-02-14T11:34:36.421Z,102930.56
2023-02-14T11:37:03.531Z,102928.03
2023-02-14T11:39:31.791Z,102925.06
2023-02-14T11:42:00.719Z,102920.38
2023-02-14T11:44:28.130Z,102925.91
2023-02-14T11:46:55.510Z,102917.63
2023-02-14T11:49:26.740Z,102919.28
2023-02-14T11:51:52.410Z,102914.84
2023-02-14T11:54:28.208Z,102906.34
2023-02-14T11:57:00.141Z,102908.25
2023-02-14T11:59:30.431Z,102902.97
2023-02-14T12:01:57.826Z,102899.97
2023-02-14T12:04:35.266Z,102896.81
2023-02-14T12:07:33.172Z,102888.09
2023-02-14T12:13:19.848Z,102882.56
2023-02-14T12:18:36.960Z,102878.97
2023-02-14T12:21:39.457Z,102869.84
2023-02-14T12:24:22.224Z,102871.53
2023-02-14T12:26:55.135Z,102858.56
2023-02-14T12:29:39.358Z,102850.28
2023-02-14T12:32:22.851Z,102847.97
2023-02-14T12:34:48.997Z,102843.06
2023-02-14T12:37:36.984Z,102841.75
2023-02-14T12:40:11.463Z,102839.78
2023-02-14T12:43:11.751Z,102838.47
2023-02-14T12:46:03.006Z,102826.97
2023-02-14T12:48:46.350Z,102827.81
2023-02-14T12:51:34.798Z,102828.66
2023-02-14T12:54:30.259Z,102821.00
2023-02-14T12:57:21.139Z,102816.56
2023-02-14T13:00:05.482Z,102819.91
2023-02-14T13:03:01.807Z,102813.56
2023-02-14T13:06:07.790Z,102809.72
2023-02-14T13:09:02.852Z,102810.56
2023-02-14T13:11:52.203Z,102796.75
2023-02-14T13:14:31.433Z,102800.34
2023-02-14T13:17:04.713Z,102796.75
2023-02-14T13:19:41.254Z,102797.59
2023-02-14T13:22:11.867Z,102791.00
2023-02-14T13:24:40.865Z,102791.84
2023-02-14T13:27:08.404Z,102783.94
2023-02-14T13:29:42.693Z,102779.47
2023-02-14T13:32:11.191Z,102776.72
2023-02-14T13:34:41.047Z,102776.13
2023-02-14T13:37:10.059Z,102776.13
2023-02-14T13:39:38.849Z,102770.59
2023-02-14T13:42:05.357Z,102764.25
2023-02-14T13:47:18.268Z,102754.88
2023-02-14T13:49:48.233Z,102755.72
2023-02-14T13:52:48.787Z,102759.31
2023-02-14T13:55:20.914Z,102752.97
2023-02-14T13:58:00.502Z,102751.03
2023-02-14T14:00:43.791Z,102749.94
2023-02-14T14:03:13.844Z,102746.34
2023-02-14T14:08:26.426Z,102744.44
2023-02-14T14:10:56.080Z,102741.75
2023-02-14T14:13:46.019Z,102742.25
2023-02-14T14:16:26.940Z,102736.84
2023-02-14T14:19:18.454Z,102741.06
2023-02-14T14:22:00.043Z,102734.47
2023-02-14T14:24:29.478Z,102735.31
2023-02-14T14:27:04.337Z,102736.16
2023-02-14T14:29:37.124Z,102729.78
2023-02-14T14:32:08.302Z,102730.63
2023-02-14T14:34:33.973Z,102717.31
2023-02-14T14:37:03.296Z,102722.34
2023-02-14T14:39:31.542Z,102720.19
2023-02-14T14:42:07.136Z,102713.84
2023-02-14T14:44:33.901Z,102718.28
2023-02-14T14:46:59.676Z,102712.75
2023-02-14T14:49:25.542Z,102706.41
2023-02-14T14:51:51.221Z,102714.69
2023-02-14T14:54:19.574Z,102709.16
2023-02-14T14:56:49.089Z,102703.63
2023-02-14T14:59:17.332Z,102694.84
2023-02-14T15:01:43.931Z,102686.13
2023-02-14T15:04:19.899Z,102679.88
2023-02-14T15:06:46.915Z,102679.13
2023-02-14T15:09:16.097Z,102684.56
2023-02-14T15:12:02.589Z,102678.66
2023-02-14T15:14:30.223Z,102672.78
2023-02-14T15:17:00.260Z,102675.75
2023-02-14T15:19:33.844Z,102670.13
2023-02-14T15:22:01.942Z,102668.53
2023-02-14T15:24:29.617Z,102668.00
2023-02-14T15:26:55.654Z,102657.09
2023-02-14T15:29:25.617Z,102662.16
2023-02-14T15:31:52.043Z,102667.22
2023-02-14T15:34:21.446Z,102667.84
2023-02-14T15:36:51.298Z,102670.09
2023-02-14T15:39:18.032Z,102670.09
2023-02-14T15:41:44.037Z,102672.66
2023-02-14T15:44:21.952Z,102678.16
2023-02-14T15:46:47.911Z,102678.75
2023-02-14T15:49:18.079Z,102676.00
2023-02-14T15:51:43.909Z,102667.72
2023-02-14T15:54:32.532Z,102678.53
2023-02-14T15:56:58.937Z,102674.91
2023-02-14T15:59:28.926Z,102670.25
2023-02-14T16:01:58.245Z,102679.38
2023-02-14T16:04:25.811Z,102676.63
2023-02-14T16:07:27.201Z,102682.72
2023-02-14T16:10:28.589Z,102676.38
2023-02-14T16:13:00.091Z,102678.03
2023-02-14T16:15:28.153Z,102671.69
2023-02-14T16:17:53.894Z,102674.19
2023-02-14T16:20:29.935Z,102679.50
2023-02-14T16:23:18.114Z,102671.44
2023-02-14T16:25:43.915Z,102676.97
2023-02-14T16:28:09.541Z,102671.44
2023-02-14T16:30:36.530Z,102673.38
2023-02-14T16:33:02.186Z,102678.03
2023-02-14T16:35:28.668Z,102674.44
2023-02-14T16:37:54.484Z,102679.72
2023-02-14T16:40:24.753Z,102682.72
2023-02-14T16:42:50.388Z,102677.22
2023-02-14T16:45:17.668Z,102678.88
2023-02-14T16:47:45.873Z,102678.03
2023-02-14T16:50:11.596Z,102683.56
2023-02-14T16:52:37.732Z,102678.28
2023-02-14T16:55:04.039Z,102684.41
2023-02-14T16:57:33.499Z,102683.56
2023-02-14T16:59:59.663Z,102679.13
2023-02-14T17:02:27.377Z,102678.28
2023-02-14T17:04:53.864Z,102679.13
2023-02-14T17:07:20.186Z,102686.31
2023-02-14T17:10:00.581Z,102677.22
2023-02-14T17:12:30.626Z,102683.81
2023-02-14T17:14:58.081Z,102688.50
2023-02-14T17:17:24.279Z,102691.25
2023-02-14T17:19:52.663Z,102700.38
2023-02-14T17:22:18.551Z,102692.09
2023-02-14T17:24:44.195Z,102691.25
2023-02-14T17:27:09.849Z,102702.28
2023-02-14T17:29:35.520Z,102706.97
2023-02-14T17:32:01.435Z,102706.13
2023-02-14T17:34:31.532Z,102706.97
2023-02-14T17:36:57.183Z,102712.50
2023-02-14T17:39:22.819Z,102708.91
2023-02-14T17:41:48.501Z,102706.34
2023-02-14T17:44:14.920Z,102710.78
2023-02-14T17:46:40.599Z,102710.78
2023-02-14T17:49:07.509Z,102714.41
2023-02-14T17:51:33.172Z,102707.19
2023-02-14T17:53:59.106Z,102709.97
2023-02-14T17:56:25.204Z,102707.19
2023-02-14T17:58:52.326Z,102707.19
2023-02-14T18:01:20.286Z,102707.19
2023-02-14T18:03:46.009Z,102709.13
2023-02-14T18:06:13.073Z,102700.00
2023-02-14T18:08:41.172Z,102697.25
2023-02-14T18:11:09.526Z,102704.69
2023-02-14T18:13:35.184Z,102694.72
2023-02-14T18:16:02.476Z,102703.84
2023-02-14T18:18:28.170Z,102712.13
2023-02-14T18:20:55.235Z,102705.75
2023-02-14T18:23:21.195Z,102704.69
2023-02-14T18:25:54.319Z,102701.09
2023-02-14T18:28:21.896Z,102692.81
2023-02-14T18:30:47.587Z,102697.50
2023-02-14T18:33:14.108Z,102697.69
2023-02-14T18:35:39.756Z,102695.78
2023-02-14T18:38:06.250Z,102694.72
2023-02-14T18:40:31.914Z,102689.41
2023-02-14T18:42:57.569Z,102690.25
2023-02-14T18:45:23.722Z,102687.50
2023-02-14T18:47:49.731Z,102681.97
2023-02-14T18:50:15.532Z,102686.66
2023-02-14T18:52:41.305Z,102677.53
2023-02-14T18:55:07.060Z,102677.31
2023-02-14T18:57:33.535Z,102672.03
2023-02-14T18:59:59.671Z,102664.56
2023-02-14T19:02:25.792Z,102667.34
2023-02-14T19:04:51.683Z,102659.06
2023-02-14T19:07:17.429Z,102655.72
2023-02-14T19:09:43.242Z,102658.22
2023-02-14T19:12:09.788Z,102662.06
2023-02-14T19:14:35.825Z,102660.75
2023-02-14T19:17:02.823Z,102657.38
2023-02-14T19:19:28.473Z,102653.78
2023-02-14T19:21:57.495Z,102653.78
2023-02-14T19:24:24.807Z,102652.13
2023-02-14T19:26:51.212Z,102642.75
2023-02-14T19:29:19.334Z,102642.75
2023-02-14T19:31:48.254Z,102645.50
2023-02-14T19:34:16.466Z,102649.34
2023-02-14T19:36:42.103Z,102651.28
2023-02-14T19:39:07.755Z,102654.63
2023-02-14T19:41:33.793Z,102645.50
2023-02-14T19:44:02.055Z,102655.94
2023-02-14T19:46:28.155Z,102648.50
2023-02-14T19:48:55.456Z,102652.13
2023-02-14T19:51:30.477Z,102654.03
2023-02-14T19:53:58.264Z,102646.59
2023-02-14T19:56:26.239Z,102645.75
2023-02-14T19:58:52.292Z,102637.69
2023-02-14T20:01:28.681Z,102631.13
2023-02-14T20:03:54.358Z,102633.88
2023-02-14T20:06:21.178Z,102620.91
2023-02-14T20:08:47.729Z,102628.34
2023-02-14T20:11:35.459Z,102621.97
2023-02-14T20:14:02.505Z,102624.72
2023-02-14T20:16:30.139Z,102624.72
2023-02-14T20:18:56.121Z,102627.50
2023-02-14T20:21:27.112Z,102622.84
2023-02-14T20:24:01.659Z,102617.31
2023-02-14T20:26:28.515Z,102612.00
2023-02-14T20:28:54.594Z,102606.50
2023-02-14T20:31:20.777Z,102612.84
2023-02-14T20:33:47.182Z,102623.88
2023-02-14T20:36:13.282Z,102620.28
2023-02-14T20:38:38.940Z,102630.50
2023-02-14T20:41:06.040Z,102623.88
2023-02-14T20:43:31.780Z,102620.28
2023-02-14T20:45:59.446Z,102624.13
2023-02-14T20:48:25.250Z,102619.44
2023-02-14T20:50:50.912Z,102616.69
2023-02-14T20:53:16.552Z,102627.72
2023-02-14T20:55:43.836Z,102622.47
2023-02-14T20:58:10.130Z,102624.13
2023-02-14T21:00:35.860Z,102624.13
2023-02-14T21:03:01.523Z,102617.78
2023-02-14T21:05:27.950Z,102622.47
2023-02-14T21:07:53.663Z,102627.97
2023-02-14T21:10:19.363Z,102628.81
2023-02-14T21:12:45.001Z,102626.28
2023-02-14T21:15:10.938Z,102616.94
2023-02-14T21:17:37.063Z,102619.44
2023-02-14T21:20:04.136Z,102614.19
2023-02-14T21:22:29.790Z,102614.38
2023-02-14T21:24:55.460Z,102616.09
2023-02-14T21:27:21.114Z,102617.13
2023-02-14T21:29:46.768Z,102619.69
2023-02-14T21:32:12.578Z,102609.94
2023-02-14T21:34:38.575Z,102612.69
2023-02-14T21:37:04.253Z,102609.09
2023-02-14T21:39:30.244Z,102611.59
2023-02-14T21:41:56.429Z,102612.47
2023-02-14T21:44:42.263Z,102605.25
2023-02-14T21:47:07.921Z,102599.97
2023-02-14T21:49:53.456Z,102600.56
2023-02-14T21:52:19.161Z,102589.78
2023-02-14T21:54:44.804Z,102589.78
2023-02-14T21:57:10.447Z,102589.78
2023-02-14T21:59:36.100Z,102594.47
2023-02-14T22:02:01.731Z,102588.94
2023-02-14T22:04:27.385Z,102587.84
2023-02-14T22:06:53.011Z,102585.34
2023-02-14T22:09:18.657Z,102596.13
2023-02-14T22:11:46.730Z,102587.03
2023-02-14T22:14:14.660Z,102589.78
2023-02-14T22:16:40.435Z,102588.09
2023-02-14T22:19:06.650Z,102587.25
2023-02-14T22:21:32.834Z,102586.44
2023-02-14T22:23:59.361Z,102590.03
2023-02-14T22:26:28.951Z,102595.53
2023-02-14T22:28:56.462Z,102578.16
2023-02-14T22:31:23.768Z,102590.03
2023-02-14T22:33:49.829Z,102585.56
2023-02-14T22:36:15.521Z,102580.91
2023-02-14T22:38:41.262Z,102576.44
2023-02-14T22:41:08.956Z,102571.75
2023-02-14T22:43:35.378Z,102580.91
2023-02-14T22:46:03.459Z,102571.75
2023-02-14T22:48:30.875Z,102575.59
2023-02-14T22:50:56.521Z,102580.28
2023-02-14T22:53:22.166Z,102567.34
2023-02-14T22:55:47.828Z,102570.94
2023-02-14T22:58:13.697Z,102570.94
2023-02-14T23:03:30.138Z,102566.50
2023-02-14T23:05:56.626Z,102569.25
2023-02-14T23:08:22.513Z,102568.41
2023-02-14T23:10:48.158Z,102567.34
2023-02-14T23:13:33.681Z,102564.81
2023-02-14T23:16:19.290Z,102561.22
2023-02-14T23:19:04.950Z,102565.91
2023-02-14T23:21:50.494Z,102572.25
2023-02-14T23:24:16.146Z,102563.97
2023-02-14T23:26:41.798Z,102576.94
2023-02-14T23:29:07.460Z,102567.59
2023-02-14T23:31:33.267Z,102565.91
2023-02-14T23:33:58.937Z,102568.66
2023-02-14T23:36:24.618Z,102563.97
2023-02-14T23:38:50.325Z,102560.38
2023-02-14T23:41:35.910Z,102562.28
2023-02-14T23:44:01.558Z,102559.53
2023-02-14T23:46:27.224Z,102556.75
2023-02-14T23:48:52.861Z,102554.00
2023-02-14T23:51:18.903Z,102554.88
2023-02-14T23:53:44.537Z,102561.44
2023-02-14T23:56:10.199Z,102552.31
2023-02-14T23:58:35.847Z,102559.53
